Flight Track Log - Related Links

Times and Time Zones

All times are in EDT time to prevent confusion due to time zone crossing. See the WBR2700 flight status page for this flight to view local times or setup timezone preferences in your user account.

Time Position Orientation Groundspeed Altitude Reporting Facility
EDT Latitude Longitude Course Direction KTS MPH feet Rate Location/Type
Mon 07:40:37 AM 35.9050 -90.6083 North 107 123 3,400  Level Kansas City Center
Mon 07:41:24 AM 35.9303 -90.6061 North 107 123 4,100 944 Climbing Memphis Center
Mon 07:42:25 AM 35.9617 -90.6033 North 108 124 5,100 934 Climbing Memphis Center
Mon 07:43:26 AM 35.9986 -90.5967 North 125 144 6,000 934 Climbing Memphis Center
Mon 07:44:27 AM 36.0389 -90.5944 North 139 160 7,000 934 Climbing Memphis Center
Mon 07:45:28 AM 36.0803 -90.5939 North 143 165 7,900 885 Climbing Memphis Center
Mon 07:46:29 AM 36.1225 -90.5894 North 148 170 8,800 541 Climbing Memphis Center
Mon 07:47:30 AM 36.1697 -90.5850 North 163 188 9,000 98 Climbing Memphis Center
Mon 07:48:31 AM 36.2247 -90.5814 North 188 216 9,000  Level Memphis Center
Mon 07:49:33 AM 36.2919 -90.5739 North 198 228 9,000  Level Memphis Center
Mon 07:50:34 AM 36.3483 -90.5700 North 199 229 9,000  Level Memphis Center
Mon 07:51:35 AM 36.4050 -90.5608 North 202 232 9,000  Level Memphis Center
Mon 07:52:36 AM 36.4625 -90.5569 North 203 234 9,000  Level Memphis Center
Mon 07:53:37 AM 36.5203 -90.5525 North 203 234 9,000  Level Memphis Center
Mon 07:54:39 AM 36.5786 -90.5478 North 205 236 9,000  Level Memphis Center
Mon 07:55:40 AM 36.6347 -90.5422 North 205 236 9,000  Level Memphis Center
Mon 07:56:41 AM 36.6931 -90.5406 North 205 236 9,000  Level Memphis Center
Mon 07:57:43 AM 36.7483 -90.5358 North 205 236 9,000 49 Level Memphis Center
Mon 07:58:44 AM 36.8039 -90.5303 North 202 232 9,100 49 Climbing Memphis Center
Mon 07:59:46 AM 36.8581 -90.5286 North 200 230 9,100  Level Memphis Center
Mon 08:00:47 AM 36.9231 -90.5222 North 199 229 9,100  Level Memphis Center
Mon 08:01:49 AM 36.9778 -90.5194 North 195 224 9,100  Level Memphis Center
Mon 08:02:50 AM 37.0297 -90.5169 North 195 224 9,100  Level Memphis Center
Mon 08:03:51 AM 37.0842 -90.5122 North 194 223 9,100  Level Memphis Center
Mon 08:04:53 AM 37.1381 -90.5061 North 194 223 9,100  Level Memphis Center
Mon 08:05:54 AM 37.1917 -90.5033 North 194 223 9,100 -49 Level Memphis Center
Mon 08:06:56 AM 37.2419 -90.5008 North 189 217 9,000  Descending Memphis Center
Mon 08:07:57 AM 37.2956 -90.4956 North 187 215 9,100 49 Climbing Memphis Center
Mon 08:08:59 AM 37.3467 -90.4881 North 187 215 9,100 -49 Level Memphis Center
Mon 08:10:00 AM 37.3967 -90.4833 North 184 212 9,000  Descending Memphis Center
Mon 08:11:02 AM 37.4472 -90.4761 North 184 212 9,100  Climbing Memphis Center
Mon 08:12:11 AM 37.5142 -90.4697 North 183 211 9,000  Descending Kansas City Center
Mon 08:13:13 AM 37.5683 -90.4653 North 191 220 9,100  Climbing Kansas City Center
Mon 08:14:14 AM 37.6228 -90.4644 North 192 221 9,000 -50 Descending Kansas City Center
Mon 08:15:14 AM 37.6789 -90.4592 North 196 226 9,000  Level Kansas City Center
Mon 08:16:18 AM 37.7333 -90.4597 360° North 197 227 9,000  Level Kansas City Center
Mon 08:17:20 AM 37.7889 -90.4567 North 197 227 9,000  Level Kansas City Center
Mon 08:18:20 AM 37.8436 -90.4533 North 197 227 9,000 -50 Level Kansas City Center
Mon 08:19:20 AM 37.9067 -90.4492 North 196 226 8,900 -50 Descending Kansas City Center
Mon 08:20:21 AM 37.9592 -90.4431 North 194 223 8,900  Level Kansas City Center
Mon 08:21:23 AM 38.0117 -90.4356 North 192 221 8,900 48 Level Kansas City Center
Mon 08:22:26 AM 38.0633 -90.4278 North 190 219 9,000 48 Climbing Kansas City Center
Mon 08:23:27 AM 38.1194 -90.4217 North 190 219 9,000 -98 Level Kansas City Center
Mon 08:24:28 AM 38.1728 -90.4158 North 190 219 8,800 -341 Descending Kansas City Center
Mon 08:25:30 AM 38.2278 -90.4086 North 194 223 8,300 -492 Descending Kansas City Center
Mon 08:26:30 AM 38.2828 -90.4072 North 195 224 7,800 -694 Descending Kansas City Center
Mon 08:27:31 AM 38.3389 -90.4044 North 190 219 6,900 -829 Descending Kansas City Center
Mon 08:28:33 AM 38.3867 -90.4033 North 176 203 6,100 -732 Descending Kansas City Center
Mon 08:29:34 AM 38.4261 -90.3992 North 173 199 5,400 -878 Descending Kansas City Center
Mon 08:30:36 AM 38.4800 -90.3917 North 165 190 4,300 -1,082 Descending Kansas City Center
Mon 08:31:36 AM 38.5239 -90.3881 North 162 186 3,200 -732 Descending Kansas City Center
Mon 08:32:39 AM 38.5681 -90.3825 North 161 185 2,800 -290 Descending Kansas City Center
Mon 08:33:40 AM 38.6069 -90.3681 16° North 152 175 2,600 -148 Descending Kansas City Center
Mon 08:34:41 AM 38.6447 -90.3492 21° North 151 174 2,500 -246 Descending Kansas City Center
Mon 08:35:42 AM 38.6819 -90.3292 23° Northeast 149 171 2,100 -639 Descending Kansas City Center
Mon 08:36:43 AM 38.7253 -90.3228 North 140 161 1,200 -677 Descending Kansas City Center
Mon 08:37:46 AM 38.7933 -90.3228 360° North 213 245 700 -476 Descending Kansas City Center
Mon 08:39:00 AM 38.7487 -90.3700 North  Level Estimated

Login

Don't have an account? Register now (free) for customized features, flight alerts, and more!